createdAt,value
2022-09-23T00:01:02.736Z,101734.63
2022-09-23T00:03:31.395Z,101751.84
2022-09-23T00:05:59.557Z,101750.13
2022-09-23T00:08:26.223Z,101767.34
2022-09-23T00:10:52.904Z,101767.34
2022-09-23T00:13:19.568Z,101763.94
2022-09-23T00:15:46.837Z,101731.81
2022-09-23T00:18:13.712Z,101760.44
2022-09-23T00:20:40.590Z,101733.25
2022-09-23T00:23:07.221Z,101757.59
2022-09-23T00:25:34.112Z,101744.63
2022-09-23T00:28:00.718Z,101732.66
2022-09-23T00:30:27.318Z,101746.75
2022-09-23T00:32:53.994Z,101747.03
2022-09-23T00:35:20.560Z,101708.03
2022-09-23T00:37:47.061Z,101722.25
2022-09-23T00:40:13.782Z,101746.63
2022-09-23T00:42:52.132Z,101744.50
2022-09-23T00:45:19.523Z,101747.88
2022-09-23T00:47:48.272Z,101690.44
2022-09-23T00:50:36.685Z,101737.72
2022-09-23T00:53:07.865Z,101746.47
2022-09-23T00:55:43.051Z,101730.69
2022-09-23T00:58:15.627Z,101723.50
2022-09-23T01:00:42.605Z,101736.59
2022-09-23T01:03:09.565Z,101730.69
2022-09-23T01:05:39.999Z,101709.72
2022-09-23T01:08:09.142Z,101705.78
2022-09-23T01:11:06.722Z,101738.59
2022-09-23T01:14:13.662Z,101724.78
2022-09-23T01:16:53.682Z,101737.47
2022-09-23T01:19:39.215Z,101728.88
2022-09-23T01:22:24.837Z,101727.19
2022-09-23T01:25:17.083Z,101717.44
2022-09-23T01:28:21.691Z,101727.03
2022-09-23T01:31:02.142Z,101706.75
2022-09-23T01:33:58.694Z,101713.53
2022-09-23T01:36:45.656Z,101692.66
2022-09-23T01:39:33.896Z,101723.38
2022-09-23T01:42:07.367Z,101695.78
2022-09-23T01:44:43.067Z,101697.88
2022-09-23T01:47:50.325Z,101716.91
2022-09-23T01:50:40.903Z,101717.31
2022-09-23T01:53:15.291Z,101716.47
2022-09-23T01:55:50.048Z,101691.28
2022-09-23T01:58:26.296Z,101718.88
2022-09-23T02:01:01.993Z,101696.63
2022-09-23T02:03:47.283Z,101719.28
2022-09-23T02:06:17.179Z,101701.69
2022-09-23T02:08:52.800Z,101665.47
2022-09-23T02:11:19.442Z,101727.03
2022-09-23T02:14:22.541Z,101714.50
2022-09-23T02:16:52.086Z,101711.38
2022-09-23T02:19:40.791Z,101736.16
2022-09-23T02:22:34.553Z,101735.59
2022-09-23T02:25:01.243Z,101737.16
2022-09-23T02:27:47.356Z,101682.78
2022-09-23T02:30:22.631Z,101722.53
2022-09-23T02:32:56.577Z,101732.53
2022-09-23T02:35:26.243Z,101721.66
2022-09-23T02:38:17.652Z,101733.22
2022-09-23T02:40:54.000Z,101674.03
2022-09-23T02:43:59.756Z,101729.84
2022-09-23T02:46:27.719Z,101613.75
2022-09-23T02:49:04.140Z,101709.41
2022-09-23T02:51:38.160Z,101715.78
2022-09-23T02:54:07.512Z,101721.94
2022-09-23T02:56:35.438Z,101696.16
2022-09-23T02:59:02.312Z,101722.34
2022-09-23T03:02:06.462Z,101729.22
2022-09-23T03:05:24.033Z,101724.88
2022-09-23T03:08:26.067Z,101703.44
2022-09-23T03:11:05.781Z,101727.53
2022-09-23T03:14:07.471Z,101730.03
2022-09-23T03:16:47.975Z,101722.88
2022-09-23T03:19:33.882Z,101721.28
2022-09-23T03:22:01.103Z,101727.31
2022-09-23T03:24:34.096Z,101734.22
2022-09-23T03:27:13.849Z,101696.28
2022-09-23T03:29:47.801Z,101731.25
2022-09-23T03:32:20.818Z,101734.66
2022-09-23T03:34:51.460Z,101713.59
2022-09-23T03:37:55.398Z,101650.22
2022-09-23T03:40:32.567Z,101725.50
2022-09-23T03:43:01.401Z,101663.56
2022-09-23T03:45:32.426Z,101725.19
2022-09-23T03:47:59.021Z,101698.66
2022-09-23T03:50:25.753Z,101718.66
2022-09-23T03:52:52.339Z,101644.97
2022-09-23T03:55:19.650Z,101671.22
2022-09-23T03:57:46.420Z,101722.56
2022-09-23T04:00:14.694Z,101713.81
2022-09-23T04:02:41.835Z,101719.88
2022-09-23T04:05:09.669Z,101699.59
2022-09-23T04:07:36.161Z,101707.22
2022-09-23T04:10:03.349Z,101700.59
2022-09-23T04:12:29.885Z,101710.50
2022-09-23T04:14:56.425Z,101550.09
2022-09-23T04:17:22.959Z,101705.69
2022-09-23T04:19:49.471Z,101701.19
2022-09-23T04:22:16.041Z,101689.28
2022-09-23T04:24:42.660Z,101656.03
2022-09-23T04:27:09.215Z,101707.00
2022-09-23T04:29:35.854Z,101685.78
2022-09-23T04:32:02.715Z,101682.44
2022-09-23T04:34:29.308Z,101706.81
2022-09-23T04:36:55.820Z,101661.16
2022-09-23T04:39:25.344Z,101667.50
2022-09-23T04:41:51.935Z,101696.56
2022-09-23T04:44:18.862Z,101712.25
2022-09-23T04:46:51.246Z,101707.06
2022-09-23T04:49:18.287Z,101702.19
2022-09-23T04:51:45.011Z,101705.84
2022-09-23T04:54:14.322Z,101623.78
2022-09-23T04:56:41.287Z,101599.09
2022-09-23T04:59:07.974Z,101703.25
2022-09-23T05:01:35.232Z,101705.47
2022-09-23T05:04:06.909Z,101707.16
2022-09-23T05:06:35.037Z,101642.03
2022-09-23T05:09:04.045Z,101695.31
2022-09-23T05:11:31.804Z,101692.47
2022-09-23T05:13:58.700Z,101651.84
2022-09-23T05:16:26.817Z,101638.19
2022-09-23T05:18:54.555Z,101698.97
2022-09-23T05:21:23.448Z,101675.34
2022-09-23T05:23:54.264Z,101636.56
2022-09-23T05:26:22.328Z,101693.81
2022-09-23T05:28:48.990Z,101692.00
2022-09-23T05:31:20.592Z,101698.75
2022-09-23T05:33:54.439Z,101702.97
2022-09-23T05:36:22.238Z,101691.47
2022-09-23T05:38:50.245Z,101703.91
2022-09-23T05:41:18.131Z,101679.38
2022-09-23T05:43:45.519Z,101700.59
2022-09-23T05:46:18.321Z,101708.22
2022-09-23T05:48:48.047Z,101691.59
2022-09-23T05:51:28.854Z,101684.28
2022-09-23T05:53:58.401Z,101637.66
2022-09-23T05:56:28.002Z,101699.25
2022-09-23T05:58:56.805Z,101693.19
2022-09-23T06:01:25.738Z,101690.25
2022-09-23T06:03:54.166Z,101708.91
2022-09-23T06:06:27.573Z,101693.69
2022-09-23T06:08:54.118Z,101675.13
2022-09-23T06:11:21.633Z,101703.06
2022-09-23T06:13:49.425Z,101703.06
2022-09-23T06:16:16.508Z,101655.75
2022-09-23T06:18:44.698Z,101656.69
2022-09-23T06:21:16.904Z,101695.72
2022-09-23T06:23:45.204Z,101688.84
2022-09-23T06:26:14.192Z,101704.47
2022-09-23T06:28:43.337Z,101682.66
2022-09-23T06:31:17.400Z,101685.75
2022-09-23T06:33:45.473Z,101699.00
2022-09-23T06:36:19.294Z,101700.28
2022-09-23T06:38:57.428Z,101691.28
2022-09-23T06:41:23.927Z,101664.66
2022-09-23T06:43:51.549Z,101631.84
2022-09-23T06:46:18.960Z,101687.88
2022-09-23T06:48:46.423Z,101673.78
2022-09-23T06:51:19.230Z,101675.75
2022-09-23T06:53:49.390Z,101638.28
2022-09-23T06:56:17.807Z,101697.69
2022-09-23T06:58:44.502Z,101692.84
2022-09-23T07:01:15.997Z,101601.38
2022-09-23T07:03:43.920Z,101676.66
2022-09-23T07:06:10.926Z,101681.25
2022-09-23T07:08:37.749Z,101604.72
2022-09-23T07:11:06.959Z,101666.66
2022-09-23T07:13:35.491Z,101699.13
2022-09-23T07:16:02.978Z,101580.41
2022-09-23T07:18:36.714Z,101600.66
2022-09-23T07:21:08.471Z,101706.81
2022-09-23T07:23:35.195Z,101706.94
2022-09-23T07:26:01.924Z,101689.88
2022-09-23T07:28:29.142Z,101718.31
2022-09-23T07:31:00.434Z,101679.84
2022-09-23T07:33:32.440Z,101704.91
2022-09-23T07:36:04.254Z,101718.78
2022-09-23T07:38:31.558Z,101675.22
2022-09-23T07:41:03.074Z,101720.16
2022-09-23T07:43:31.944Z,101695.25
2022-09-23T07:46:07.096Z,101602.16
2022-09-23T07:48:34.850Z,101699.78
2022-09-23T07:51:10.879Z,101728.13
2022-09-23T07:53:38.082Z,101732.00
2022-09-23T07:56:08.513Z,101732.97
2022-09-23T07:58:35.628Z,101638.44
2022-09-23T08:01:07.838Z,101691.34
2022-09-23T08:03:35.260Z,101732.03
2022-09-23T08:06:12.074Z,101729.72
2022-09-23T08:08:40.726Z,101728.44
2022-09-23T08:11:10.245Z,101728.81
2022-09-23T08:13:37.407Z,101727.59
2022-09-23T08:16:04.578Z,101705.94
2022-09-23T08:18:31.259Z,101723.22
2022-09-23T08:20:57.941Z,101722.44
2022-09-23T08:23:24.583Z,101719.09
2022-09-23T08:26:00.916Z,101618.78
2022-09-23T08:28:28.560Z,101663.72
2022-09-23T08:30:55.792Z,101711.25
2022-09-23T08:33:23.735Z,101726.47
2022-09-23T08:35:50.934Z,101703.34
2022-09-23T08:38:18.498Z,101724.72
2022-09-23T08:40:48.912Z,101725.41
2022-09-23T08:43:28.220Z,101634.66
2022-09-23T08:45:57.513Z,101729.63
2022-09-23T08:48:30.678Z,101716.16
2022-09-23T08:51:06.518Z,101735.09
2022-09-23T08:53:38.465Z,101679.16
2022-09-23T08:56:11.960Z,101713.91
2022-09-23T08:59:07.889Z,101722.84
2022-09-23T09:01:56.885Z,101721.38
2022-09-23T09:04:33.075Z,101697.38
2022-09-23T09:10:06.233Z,101706.66
2022-09-23T09:13:07.611Z,101708.84
2022-09-23T09:15:46.025Z,101697.75
2022-09-23T09:18:22.054Z,101658.88
2022-09-23T09:21:09.216Z,101689.44
2022-09-23T09:23:50.060Z,101694.44
2022-09-23T09:26:24.335Z,101678.94
2022-09-23T09:29:30.883Z,101689.81
2022-09-23T09:31:57.656Z,101649.53
2022-09-23T09:34:24.186Z,101679.03
2022-09-23T09:37:06.750Z,101681.19
2022-09-23T09:39:35.681Z,101654.81
2022-09-23T09:42:04.331Z,101654.56
2022-09-23T09:44:37.152Z,101692.06
2022-09-23T09:47:03.890Z,101679.31
2022-09-23T09:49:48.597Z,101662.19
2022-09-23T09:52:26.106Z,101681.72
2022-09-23T09:54:55.570Z,101679.28
2022-09-23T09:57:37.300Z,101686.59
2022-09-23T10:00:23.079Z,101680.06
2022-09-23T10:03:05.086Z,101576.84
2022-09-23T10:05:47.079Z,101645.16
2022-09-23T10:08:35.278Z,101662.03
2022-09-23T10:11:19.056Z,101660.97
2022-09-23T10:14:27.024Z,101649.75
2022-09-23T10:17:05.357Z,101656.66
2022-09-23T10:19:34.840Z,101633.75
2022-09-23T10:22:16.807Z,101653.34
2022-09-23T10:24:52.752Z,101646.50
2022-09-23T10:27:34.605Z,101646.84
2022-09-23T10:30:07.315Z,101558.00
2022-09-23T10:32:44.199Z,101619.50
2022-09-23T10:35:13.618Z,101644.34
2022-09-23T10:37:49.046Z,101624.28
2022-09-23T10:40:37.154Z,101643.66
2022-09-23T10:43:46.984Z,101642.44
2022-09-23T10:46:39.797Z,101635.75
2022-09-23T10:49:25.274Z,101634.69
2022-09-23T10:52:25.951Z,101643.56
2022-09-23T10:55:04.597Z,101644.28
2022-09-23T10:58:14.183Z,101620.47
2022-09-23T11:00:59.201Z,101638.25
2022-09-23T11:03:38.501Z,101625.91
2022-09-23T11:06:14.339Z,101639.28
2022-09-23T11:08:58.742Z,101629.03
2022-09-23T11:11:43.887Z,101613.34
2022-09-23T11:14:19.449Z,101618.34
2022-09-23T11:17:05.819Z,101623.75
2022-09-23T11:19:56.002Z,101566.25
2022-09-23T11:22:37.983Z,101619.47
2022-09-23T11:25:07.519Z,101556.09
2022-09-23T11:28:11.711Z,101603.44
2022-09-23T11:31:17.033Z,101574.66
2022-09-23T11:33:49.688Z,101546.34
2022-09-23T11:36:30.568Z,101598.53
2022-09-23T11:39:04.323Z,101512.44
2022-09-23T11:41:35.540Z,101548.81
2022-09-23T11:44:18.126Z,101544.34
2022-09-23T11:46:54.605Z,101580.22
2022-09-23T11:49:58.448Z,101580.13
2022-09-23T11:52:32.016Z,101520.06
2022-09-23T11:55:22.319Z,101581.00
2022-09-23T11:57:53.184Z,101573.91
2022-09-23T12:00:34.216Z,101575.19
2022-09-23T12:03:18.050Z,101570.44
2022-09-23T12:06:12.704Z,101559.00
2022-09-23T12:08:39.268Z,101550.03
2022-09-23T12:11:25.541Z,101556.50
2022-09-23T12:14:09.763Z,101552.53
2022-09-23T12:16:43.092Z,101560.69
2022-09-23T12:19:40.371Z,101550.44
2022-09-23T12:22:24.149Z,101545.44
2022-09-23T12:25:17.623Z,101508.59
2022-09-23T12:27:48.103Z,101525.19
2022-09-23T12:30:42.452Z,101521.72
2022-09-23T12:33:21.544Z,101501.41
2022-09-23T12:35:48.662Z,101498.94
2022-09-23T12:38:25.304Z,101506.03
2022-09-23T12:40:55.061Z,101529.41
2022-09-23T12:43:34.500Z,101510.66
2022-09-23T12:46:25.657Z,101408.84
2022-09-23T12:48:57.404Z,101506.06
2022-09-23T12:51:26.345Z,101506.97
2022-09-23T12:53:56.183Z,101488.03
2022-09-23T12:56:28.655Z,101503.16
2022-09-23T12:59:17.405Z,101497.56
2022-09-23T13:01:45.042Z,101501.13
2022-09-23T13:04:54.376Z,101495.03
2022-09-23T13:07:32.323Z,101488.28
2022-09-23T13:10:18.805Z,101484.78
2022-09-23T13:12:46.662Z,101412.38
2022-09-23T13:15:29.926Z,101363.50
2022-09-23T13:18:15.427Z,101476.03
2022-09-23T13:20:42.118Z,101429.56
2022-09-23T13:23:14.807Z,101468.91
2022-09-23T13:25:43.364Z,101462.63
2022-09-23T13:28:30.195Z,101414.06
2022-09-23T13:30:58.548Z,101443.34
2022-09-23T13:33:40.491Z,101453.84
2022-09-23T13:36:15.718Z,101451.69
2022-09-23T13:38:42.926Z,101443.56
2022-09-23T13:41:28.867Z,101441.72
2022-09-23T13:44:00.540Z,101422.72
2022-09-23T13:46:30.051Z,101393.25
2022-09-23T13:48:56.893Z,101418.88
2022-09-23T13:51:50.204Z,101372.69
2022-09-23T13:54:29.072Z,101425.66
2022-09-23T13:56:58.942Z,101418.72
2022-09-23T13:59:28.378Z,101424.59
2022-09-23T14:02:14.205Z,101423.09
2022-09-23T14:04:41.073Z,101409.91
2022-09-23T14:07:09.605Z,101409.09
2022-09-23T14:09:37.736Z,101413.31
2022-09-23T14:12:06.652Z,101410.38
2022-09-23T14:14:35.040Z,101359.00
2022-09-23T14:17:02.726Z,101395.72
2022-09-23T14:19:29.399Z,101376.53
2022-09-23T14:21:56.445Z,101397.78
2022-09-23T14:24:30.414Z,101400.31
2022-09-23T14:27:10.931Z,101398.66
2022-09-23T14:29:39.709Z,101401.59
2022-09-23T14:32:11.017Z,101396.38
2022-09-23T14:35:06.716Z,101400.78
2022-09-23T14:37:55.086Z,101333.50
2022-09-23T14:40:30.201Z,101391.22
2022-09-23T14:43:23.923Z,101382.00
2022-09-23T14:45:54.800Z,101384.53
2022-09-23T14:48:25.704Z,101223.19
2022-09-23T14:50:58.115Z,101376.13
2022-09-23T14:53:46.394Z,101358.09
2022-09-23T14:56:16.024Z,101304.44
2022-09-23T14:58:51.719Z,101367.03
2022-09-23T15:01:39.440Z,101325.47
2022-09-23T15:04:11.725Z,101363.28
2022-09-23T15:06:40.399Z,101362.81
2022-09-23T15:09:07.664Z,101356.94
2022-09-23T15:11:36.124Z,101366.06
2022-09-23T15:14:33.147Z,101363.28
2022-09-23T15:16:50.770Z,101340.94
2022-09-23T15:19:20.938Z,101345.09
2022-09-23T15:21:52.656Z,101371.53
2022-09-23T15:24:43.382Z,101363.69
2022-09-23T15:27:21.139Z,101359.84
2022-09-23T15:29:48.611Z,101354.00
2022-09-23T15:32:15.285Z,101355.56
2022-09-23T15:34:42.175Z,101302.16
2022-09-23T15:37:12.511Z,101367.59
2022-09-23T15:39:39.186Z,101367.69
2022-09-23T15:42:07.180Z,101332.25
2022-09-23T15:44:35.351Z,101335.78
2022-09-23T15:47:02.452Z,101367.19
2022-09-23T15:49:42.025Z,101360.66
2022-09-23T15:52:10.582Z,101362.72
2022-09-23T15:54:37.890Z,101364.81
2022-09-23T15:57:05.771Z,101362.34
2022-09-23T15:59:33.003Z,101282.47
2022-09-23T16:02:05.749Z,101326.69
2022-09-23T16:04:32.401Z,101338.34
2022-09-23T16:06:59.120Z,101355.06
2022-09-23T16:09:28.226Z,101358.75
2022-09-23T16:11:55.149Z,101354.19
2022-09-23T16:14:21.771Z,101345.16
2022-09-23T16:16:48.396Z,101336.53
2022-09-23T16:19:16.285Z,101264.72
2022-09-23T16:21:43.251Z,101369.53
2022-09-23T16:24:17.366Z,101370.34
2022-09-23T16:26:47.068Z,101369.94
2022-09-23T16:29:15.007Z,101336.00
2022-09-23T16:31:43.250Z,101356.97
2022-09-23T16:34:09.837Z,101357.59
2022-09-23T16:36:40.612Z,101360.00
2022-09-23T16:39:10.498Z,101360.00
2022-09-23T16:41:37.193Z,101371.03
2022-09-23T16:44:06.217Z,101369.31
2022-09-23T16:46:33.785Z,101370.38
2022-09-23T16:49:00.890Z,101364.19
2022-09-23T16:51:29.928Z,101353.00
2022-09-23T16:53:58.441Z,101363.41
2022-09-23T16:56:29.240Z,101345.00
2022-09-23T16:59:03.822Z,101365.88
2022-09-23T17:01:50.837Z,101252.47
2022-09-23T17:04:19.401Z,101366.09
2022-09-23T17:06:50.671Z,101349.97
2022-09-23T17:09:20.026Z,101356.47
2022-09-23T17:11:52.988Z,101366.22
2022-09-23T17:14:19.587Z,101374.84
2022-09-23T17:16:46.068Z,101374.84
2022-09-23T17:19:13.920Z,101383.59
2022-09-23T17:21:40.499Z,101332.03
2022-09-23T17:24:07.504Z,101322.63
2022-09-23T17:26:34.629Z,101287.47
2022-09-23T17:29:02.080Z,101350.81
2022-09-23T17:31:29.077Z,101367.41
2022-09-23T17:33:57.344Z,101383.47
2022-09-23T17:36:24.552Z,101319.44
2022-09-23T17:38:54.507Z,101373.22
2022-09-23T17:41:21.822Z,101384.97
2022-09-23T17:43:53.822Z,101360.28
2022-09-23T17:46:20.583Z,101385.97
2022-09-23T17:48:47.113Z,101296.78
2022-09-23T17:51:16.112Z,101383.16
2022-09-23T17:53:45.526Z,101371.63
2022-09-23T17:56:21.125Z,101280.44
2022-09-23T17:58:49.523Z,101381.78
2022-09-23T18:01:19.732Z,101384.00
2022-09-23T18:03:47.378Z,101369.47
2022-09-23T18:06:16.682Z,101341.41
2022-09-23T18:08:45.670Z,101381.50
2022-09-23T18:11:14.838Z,101373.38
2022-09-23T18:13:41.810Z,101344.75
2022-09-23T18:16:08.498Z,101375.66
2022-09-23T18:18:34.994Z,101383.06
2022-09-23T18:21:02.812Z,101292.25
2022-09-23T18:23:29.764Z,101378.59
2022-09-23T18:25:56.717Z,101391.78
2022-09-23T18:28:23.267Z,101367.66
2022-09-23T18:30:54.709Z,101347.91
2022-09-23T18:33:22.975Z,101393.16
2022-09-23T18:35:50.226Z,101404.47
2022-09-23T18:38:16.757Z,101410.03
2022-09-23T18:40:58.283Z,101396.72
2022-09-23T18:43:32.714Z,101388.31
2022-09-23T18:46:04.012Z,101370.91
2022-09-23T18:48:51.180Z,101307.78
2022-09-23T18:51:19.739Z,101376.16
2022-09-23T18:53:47.961Z,101399.22
2022-09-23T18:56:17.413Z,101381.06
2022-09-23T18:58:48.367Z,101327.97
2022-09-23T19:01:15.930Z,101367.28
2022-09-23T19:03:42.912Z,101410.66
2022-09-23T19:06:11.950Z,101410.28
2022-09-23T19:08:40.051Z,101412.47
2022-09-23T19:11:09.328Z,101418.06
2022-09-23T19:13:36.116Z,101404.16
2022-09-23T19:16:16.662Z,101418.22
2022-09-23T19:18:46.541Z,101387.56
2022-09-23T19:21:14.529Z,101391.75
2022-09-23T19:23:48.973Z,101410.25
2022-09-23T19:26:18.628Z,101416.78
2022-09-23T19:28:50.079Z,101414.59
2022-09-23T19:31:20.194Z,101405.88
2022-09-23T19:34:01.214Z,101339.13
2022-09-23T19:36:35.259Z,101399.69
2022-09-23T19:39:22.498Z,101382.59
2022-09-23T19:41:50.516Z,101415.53
2022-09-23T19:44:17.913Z,101412.84
2022-09-23T19:46:46.262Z,101368.38
2022-09-23T19:49:13.756Z,101407.50
2022-09-23T19:51:40.407Z,101374.59
2022-09-23T19:54:08.133Z,101396.06
2022-09-23T19:56:35.628Z,101407.81
2022-09-23T19:59:05.827Z,101262.81
2022-09-23T20:01:33.660Z,101360.84
2022-09-23T20:04:00.963Z,101368.53
2022-09-23T20:06:32.636Z,101380.34
2022-09-23T20:08:59.567Z,101402.84
2022-09-23T20:11:28.516Z,101379.84
2022-09-23T20:14:01.843Z,101394.81
2022-09-23T20:16:32.339Z,101395.47
2022-09-23T20:19:00.377Z,101396.88
2022-09-23T20:21:28.457Z,101399.56
2022-09-23T20:23:55.383Z,101329.66
2022-09-23T20:26:40.594Z,101358.22
2022-09-23T20:29:09.020Z,101384.44
2022-09-23T20:31:35.877Z,101407.63
2022-09-23T20:34:05.610Z,101377.56
2022-09-23T20:36:34.099Z,101343.81
2022-09-23T20:39:02.668Z,101408.66
2022-09-23T20:41:31.253Z,101380.09
2022-09-23T20:44:01.339Z,101405.44
2022-09-23T20:46:28.942Z,101362.28
2022-09-23T20:48:56.780Z,101400.94
2022-09-23T20:51:24.705Z,101418.56
2022-09-23T20:53:52.977Z,101417.41
2022-09-23T20:56:21.088Z,101415.38
2022-09-23T20:58:48.661Z,101405.28
2022-09-23T21:01:16.085Z,101414.03
2022-09-23T21:03:45.099Z,101374.34
2022-09-23T21:06:14.512Z,101406.63
2022-09-23T21:08:42.107Z,101411.16
2022-09-23T21:11:11.848Z,101282.63
2022-09-23T21:13:38.846Z,101412.69
2022-09-23T21:16:08.316Z,101407.13
2022-09-23T21:18:35.280Z,101403.56
2022-09-23T21:21:02.063Z,101311.34
2022-09-23T21:23:33.960Z,101386.63
2022-09-23T21:26:06.724Z,101392.19
2022-09-23T21:28:37.960Z,101401.44
2022-09-23T21:31:11.036Z,101377.56
2022-09-23T21:33:38.883Z,101364.13
2022-09-23T21:36:07.396Z,101399.75
2022-09-23T21:38:35.904Z,101375.69
2022-09-23T21:41:08.015Z,101394.84
2022-09-23T21:43:38.408Z,101393.03
2022-09-23T21:46:07.162Z,101392.19
2022-09-23T21:48:36.036Z,101366.97
2022-09-23T21:51:08.317Z,101396.56
2022-09-23T21:53:40.237Z,101380.06
2022-09-23T21:56:14.023Z,101400.06
2022-09-23T21:58:43.865Z,101398.38
2022-09-23T22:01:16.139Z,101375.34
2022-09-23T22:03:44.012Z,101352.94
2022-09-23T22:06:21.595Z,101392.94
2022-09-23T22:08:59.849Z,101389.06
2022-09-23T22:11:50.743Z,101354.75
2022-09-23T22:14:19.629Z,101401.44
2022-09-23T22:16:46.938Z,101379.97
2022-09-23T22:19:15.062Z,101365.50
2022-09-23T22:21:43.971Z,101397.44
2022-09-23T22:24:11.743Z,101399.09
2022-09-23T22:26:41.239Z,101408.81
2022-09-23T22:29:28.085Z,101378.94
2022-09-23T22:32:13.743Z,101370.06
2022-09-23T22:34:53.245Z,101384.31
2022-09-23T22:37:25.582Z,101389.72
2022-09-23T22:39:52.432Z,101381.63
2022-09-23T22:42:21.269Z,101362.81
2022-09-23T22:44:48.764Z,101377.44
2022-09-23T22:47:18.056Z,101376.59
2022-09-23T22:49:46.024Z,101373.22
2022-09-23T22:52:12.734Z,101315.44
2022-09-23T22:54:39.769Z,101308.03
2022-09-23T22:57:08.025Z,101357.09
2022-09-23T22:59:35.783Z,101367.22
2022-09-23T23:02:03.123Z,101316.44
2022-09-23T23:04:30.515Z,101360.28
2022-09-23T23:07:03.145Z,101371.69
2022-09-23T23:09:29.613Z,101320.41
2022-09-23T23:11:59.378Z,101374.50
2022-09-23T23:14:27.942Z,101384.22
2022-09-23T23:16:55.117Z,101387.94
2022-09-23T23:19:21.771Z,101379.19
2022-09-23T23:21:50.373Z,101384.56
2022-09-23T23:24:17.990Z,101331.63
2022-09-23T23:26:45.620Z,101390.63
2022-09-23T23:29:13.628Z,101374.78
2022-09-23T23:31:40.690Z,101387.88
2022-09-23T23:34:11.869Z,101379.13
2022-09-23T23:36:39.464Z,101267.25
2022-09-23T23:39:07.431Z,101360.59
2022-09-23T23:41:34.175Z,101378.03
2022-09-23T23:44:01.293Z,101396.50
2022-09-23T23:46:30.163Z,101400.69
2022-09-23T23:48:57.610Z,101401.84
2022-09-23T23:51:27.878Z,101329.50
2022-09-23T23:53:54.999Z,101396.81
2022-09-23T23:56:24.004Z,101379.13
2022-09-23T23:58:58.691Z,101370.22
